createdAt,value
2019-03-29T00:01:20.692Z,86.01
2019-03-29T00:03:49.224Z,86.01
2019-03-29T00:06:17.788Z,86.17
2019-03-29T00:08:46.407Z,85.83
2019-03-29T00:11:14.989Z,85.91
2019-03-29T00:13:43.603Z,85.52
2019-03-29T00:16:12.169Z,85.73
2019-03-29T00:18:40.637Z,85.92
2019-03-29T00:21:09.279Z,86.31
2019-03-29T00:23:37.884Z,86.39
2019-03-29T00:26:06.490Z,86.42
2019-03-29T00:28:37.719Z,86.53
2019-03-29T00:31:06.340Z,86.69
2019-03-29T00:33:35.027Z,86.78
2019-03-29T00:36:03.672Z,86.29
2019-03-29T00:38:32.140Z,86.40
2019-03-29T00:41:00.622Z,86.21
2019-03-29T00:43:29.306Z,86.50
2019-03-29T00:45:57.952Z,86.49
2019-03-29T00:48:26.550Z,86.46
2019-03-29T00:50:55.147Z,86.41
2019-03-29T00:53:23.756Z,86.52
2019-03-29T00:55:52.301Z,86.78
2019-03-29T00:58:21.016Z,86.72
2019-03-29T01:00:49.641Z,86.60
2019-03-29T01:03:18.307Z,86.34
2019-03-29T01:05:47.006Z,86.15
2019-03-29T01:08:16.082Z,86.18
2019-03-29T01:10:44.731Z,86.40
2019-03-29T01:13:13.410Z,86.55
2019-03-29T01:15:42.088Z,86.73
2019-03-29T01:18:11.232Z,86.58
2019-03-29T01:20:40.924Z,86.48
2019-03-29T01:23:09.622Z,86.21
2019-03-29T01:25:38.195Z,86.34
2019-03-29T01:28:06.878Z,86.36
2019-03-29T01:30:35.475Z,86.42
2019-03-29T01:33:04.110Z,86.44
2019-03-29T01:35:32.821Z,86.29
2019-03-29T01:38:01.553Z,86.28
2019-03-29T01:40:30.166Z,86.17
2019-03-29T01:42:58.877Z,86.15
2019-03-29T01:45:27.469Z,86.12
2019-03-29T01:47:56.160Z,86.07
2019-03-29T01:50:25.222Z,86.06
2019-03-29T01:52:53.770Z,86.11
2019-03-29T01:55:22.389Z,86.12
2019-03-29T01:57:51.958Z,86.14
2019-03-29T02:00:32.050Z,86.39
2019-03-29T02:03:00.695Z,86.28
2019-03-29T02:05:29.667Z,86.22
2019-03-29T02:07:58.204Z,86.01
2019-03-29T02:10:27.204Z,85.88
2019-03-29T02:12:55.813Z,86.13
2019-03-29T02:15:24.416Z,86.28
2019-03-29T02:17:53.016Z,86.22
2019-03-29T02:20:21.663Z,86.02
2019-03-29T02:22:50.399Z,86.19
2019-03-29T02:25:18.980Z,86.19
2019-03-29T02:27:47.705Z,86.39
2019-03-29T02:30:16.550Z,86.55
2019-03-29T02:32:45.092Z,86.65
2019-03-29T02:35:14.388Z,86.57
2019-03-29T02:37:42.909Z,86.54
2019-03-29T02:40:11.555Z,86.31
2019-03-29T02:42:40.178Z,86.48
2019-03-29T02:45:09.196Z,86.67
2019-03-29T02:47:37.866Z,86.71
2019-03-29T02:50:08.566Z,86.66
2019-03-29T02:52:37.675Z,86.61
2019-03-29T02:55:13.400Z,86.64
2019-03-29T02:57:46.261Z,86.62
2019-03-29T03:00:13.617Z,86.43
2019-03-29T03:02:42.305Z,86.27
2019-03-29T03:05:11.308Z,86.31
2019-03-29T03:07:39.896Z,86.45
2019-03-29T03:10:10.218Z,86.24
2019-03-29T03:12:38.919Z,86.53
2019-03-29T03:15:09.736Z,86.54
2019-03-29T03:17:38.746Z,86.62
2019-03-29T03:20:15.344Z,86.50
2019-03-29T03:22:44.958Z,86.55
2019-03-29T03:25:13.950Z,86.44
2019-03-29T03:27:42.590Z,86.57
2019-03-29T03:30:12.677Z,86.45
2019-03-29T03:32:41.309Z,86.49
2019-03-29T03:35:10.877Z,86.72
2019-03-29T03:37:39.607Z,86.65
2019-03-29T03:40:09.720Z,86.53
2019-03-29T03:42:38.381Z,86.68
2019-03-29T03:45:08.398Z,86.91
2019-03-29T03:47:38.922Z,87.03
2019-03-29T03:50:08.303Z,86.98
2019-03-29T03:52:36.930Z,86.93
2019-03-29T03:55:06.671Z,86.74
2019-03-29T03:57:37.728Z,86.44
2019-03-29T04:00:10.402Z,86.23
2019-03-29T04:02:38.928Z,86.10
2019-03-29T04:05:07.536Z,86.17
2019-03-29T04:07:35.998Z,85.92
2019-03-29T04:10:07.219Z,86.13
2019-03-29T04:12:35.807Z,86.05
2019-03-29T04:15:05.488Z,86.13
2019-03-29T04:17:34.057Z,86.00
2019-03-29T04:20:02.690Z,86.17
2019-03-29T04:22:31.297Z,86.01
2019-03-29T04:24:59.832Z,85.97
2019-03-29T04:27:28.405Z,85.91
2019-03-29T04:29:56.979Z,85.80
2019-03-29T04:32:25.590Z,86.00
2019-03-29T04:34:59.325Z,86.02
2019-03-29T04:37:29.308Z,85.84
2019-03-29T04:40:07.109Z,85.71
2019-03-29T04:42:28.215Z,85.67
2019-03-29T04:44:59.671Z,85.73
2019-03-29T04:47:26.980Z,85.86
2019-03-29T04:49:55.589Z,85.76
2019-03-29T04:52:24.211Z,85.79
2019-03-29T04:54:52.911Z,85.95
2019-03-29T04:57:21.575Z,85.92
2019-03-29T04:59:50.186Z,85.95
2019-03-29T05:02:18.873Z,86.26
2019-03-29T05:04:47.741Z,86.10
2019-03-29T05:07:16.359Z,86.26
2019-03-29T05:09:44.991Z,86.25
2019-03-29T05:12:13.717Z,86.24
2019-03-29T05:14:42.180Z,86.15
2019-03-29T05:17:10.674Z,85.96
2019-03-29T05:19:39.343Z,86.11
2019-03-29T05:22:07.807Z,86.33
2019-03-29T05:24:36.450Z,86.37
2019-03-29T05:27:05.190Z,86.18
2019-03-29T05:29:33.801Z,86.21
2019-03-29T05:32:02.332Z,86.10
2019-03-29T05:34:31.008Z,85.88
2019-03-29T05:36:59.522Z,85.91
2019-03-29T05:39:30.619Z,85.88
2019-03-29T05:41:59.218Z,85.74
2019-03-29T05:44:27.711Z,85.77
2019-03-29T05:46:56.252Z,85.33
2019-03-29T05:49:24.740Z,85.51
2019-03-29T05:51:54.567Z,85.23
2019-03-29T05:54:23.160Z,85.24
2019-03-29T05:56:51.664Z,85.37
2019-03-29T05:59:20.283Z,85.26
2019-03-29T06:01:48.912Z,85.15
2019-03-29T06:04:17.611Z,85.01
2019-03-29T06:06:46.192Z,85.18
2019-03-29T06:09:14.656Z,85.19
2019-03-29T06:11:43.245Z,85.57
2019-03-29T06:14:11.914Z,85.55
2019-03-29T06:16:40.547Z,85.36
2019-03-29T06:19:09.179Z,85.40
2019-03-29T06:21:37.718Z,85.26
2019-03-29T06:24:06.352Z,85.56
2019-03-29T06:26:35.179Z,85.34
2019-03-29T06:29:03.800Z,85.53
2019-03-29T06:31:32.403Z,85.68
2019-03-29T06:34:01.013Z,85.58
2019-03-29T06:36:31.809Z,85.42
2019-03-29T06:39:01.721Z,85.59
2019-03-29T06:41:30.344Z,85.68
2019-03-29T06:43:58.831Z,85.52
2019-03-29T06:46:27.508Z,85.27
2019-03-29T06:48:56.019Z,85.19
2019-03-29T06:51:24.563Z,85.05
2019-03-29T06:53:53.119Z,84.75
2019-03-29T06:56:21.736Z,84.54
2019-03-29T06:58:50.338Z,84.21
2019-03-29T07:01:18.949Z,84.02
2019-03-29T07:03:47.543Z,83.78
2019-03-29T07:06:16.046Z,83.79
2019-03-29T07:08:44.573Z,83.58
2019-03-29T07:11:17.693Z,83.42
2019-03-29T07:13:56.585Z,82.74
2019-03-29T07:16:13.775Z,82.18
2019-03-29T07:18:42.376Z,82.38
2019-03-29T07:21:21.273Z,81.56
2019-03-29T07:23:41.234Z,81.41
2019-03-29T07:26:09.873Z,81.22
2019-03-29T07:28:38.339Z,80.28
2019-03-29T07:31:06.957Z,79.92
2019-03-29T07:33:36.335Z,79.50
2019-03-29T07:36:04.870Z,79.09
2019-03-29T07:38:33.414Z,78.54
2019-03-29T07:41:02.388Z,77.39
2019-03-29T07:43:33.329Z,77.98
2019-03-29T07:46:01.859Z,77.36
2019-03-29T07:48:30.331Z,76.42
2019-03-29T07:50:59.050Z,76.20
2019-03-29T07:53:30.289Z,75.61
2019-03-29T07:55:58.862Z,75.46
2019-03-29T07:58:27.393Z,75.40
2019-03-29T08:00:55.938Z,75.77
2019-03-29T08:03:24.587Z,75.62
2019-03-29T08:05:53.238Z,75.04
2019-03-29T08:08:25.018Z,71.04
2019-03-29T08:10:53.932Z,70.80
2019-03-29T08:13:23.322Z,68.32
2019-03-29T08:15:51.966Z,66.36
2019-03-29T08:18:20.572Z,66.41
2019-03-29T08:20:49.232Z,66.05
2019-03-29T08:23:17.836Z,64.32
2019-03-29T08:25:46.711Z,63.97
2019-03-29T08:28:15.318Z,62.54
2019-03-29T08:30:43.855Z,63.06
2019-03-29T08:33:12.396Z,62.33
2019-03-29T08:35:40.962Z,61.24
2019-03-29T08:38:09.638Z,60.40
2019-03-29T08:40:38.255Z,60.10
2019-03-29T08:43:06.871Z,56.31
2019-03-29T08:45:35.418Z,55.55
2019-03-29T08:48:06.677Z,57.89
2019-03-29T08:50:34.358Z,57.75
2019-03-29T08:53:02.902Z,56.21
2019-03-29T08:55:45.102Z,56.05
2019-03-29T08:58:03.314Z,57.28
2019-03-29T09:00:32.818Z,55.85
2019-03-29T09:03:01.552Z,55.61
2019-03-29T09:05:30.141Z,56.68
2019-03-29T09:07:59.366Z,56.43
2019-03-29T09:10:28.176Z,54.83
2019-03-29T09:12:56.718Z,56.00
2019-03-29T09:15:25.293Z,56.05
2019-03-29T09:17:53.838Z,55.06
2019-03-29T09:20:22.381Z,55.11
2019-03-29T09:22:51.044Z,54.10
2019-03-29T09:25:21.109Z,52.30
2019-03-29T09:27:49.936Z,52.70
2019-03-29T09:30:18.663Z,50.43
2019-03-29T09:32:50.918Z,51.59
2019-03-29T09:35:17.686Z,52.50
2019-03-29T09:37:46.224Z,51.86
2019-03-29T09:40:15.189Z,51.30
2019-03-29T09:42:43.730Z,52.97
2019-03-29T09:45:12.646Z,52.56
2019-03-29T09:47:41.294Z,52.20
2019-03-29T09:50:10.916Z,52.47
2019-03-29T09:52:41.328Z,51.89
2019-03-29T09:55:10.058Z,52.27
2019-03-29T09:57:38.628Z,51.04
2019-03-29T10:00:19.209Z,51.61
2019-03-29T10:02:39.096Z,50.93
2019-03-29T10:05:07.903Z,50.97
2019-03-29T10:07:36.523Z,50.49
2019-03-29T10:10:06.839Z,51.18
2019-03-29T10:12:43.741Z,50.75
2019-03-29T10:15:07.887Z,50.82
2019-03-29T10:17:36.457Z,51.01
2019-03-29T10:20:07.470Z,51.75
2019-03-29T10:22:36.058Z,52.72
2019-03-29T10:25:18.467Z,52.52
2019-03-29T10:27:37.548Z,52.68
2019-03-29T10:30:09.184Z,51.32
2019-03-29T10:32:37.723Z,52.79
2019-03-29T10:35:07.303Z,51.43
2019-03-29T10:37:35.936Z,51.38
2019-03-29T10:40:07.994Z,52.00
2019-03-29T10:42:40.277Z,51.68
2019-03-29T10:45:08.659Z,52.66
2019-03-29T10:47:43.739Z,49.25
2019-03-29T10:50:07.976Z,51.22
2019-03-29T10:52:36.526Z,50.60
2019-03-29T10:55:05.770Z,50.49
2019-03-29T10:57:34.339Z,50.88
2019-03-29T11:00:03.611Z,51.53
2019-03-29T11:02:32.133Z,51.56
2019-03-29T11:05:00.676Z,51.03
2019-03-29T11:07:29.285Z,49.76
2019-03-29T11:09:57.751Z,50.30
2019-03-29T11:12:26.293Z,50.48
2019-03-29T11:14:54.923Z,50.92
2019-03-29T11:17:23.401Z,50.71
2019-03-29T11:19:51.944Z,51.40
2019-03-29T11:22:20.621Z,50.99
2019-03-29T11:24:49.108Z,49.38
2019-03-29T11:27:17.823Z,48.84
2019-03-29T11:29:46.379Z,48.61
2019-03-29T11:32:14.911Z,48.94
2019-03-29T11:34:43.553Z,49.69
2019-03-29T11:37:12.037Z,50.51
2019-03-29T11:39:41.833Z,49.48
2019-03-29T11:42:10.295Z,48.72
2019-03-29T11:44:38.764Z,49.59
2019-03-29T11:47:07.860Z,49.75
2019-03-29T11:49:36.471Z,48.36
2019-03-29T11:52:05.134Z,48.40
2019-03-29T11:54:33.768Z,48.06
2019-03-29T11:57:02.678Z,48.01
2019-03-29T11:59:31.282Z,47.71
2019-03-29T12:01:59.833Z,46.22
2019-03-29T12:04:28.396Z,46.48
2019-03-29T12:06:57.102Z,47.64
2019-03-29T12:09:26.008Z,46.54
2019-03-29T12:11:54.553Z,47.63
2019-03-29T12:14:23.175Z,46.90
2019-03-29T12:16:53.388Z,46.15
2019-03-29T12:19:21.938Z,47.11
2019-03-29T12:21:50.479Z,46.36
2019-03-29T12:24:19.106Z,47.28
2019-03-29T12:26:47.722Z,47.21
2019-03-29T12:29:16.312Z,47.07
2019-03-29T12:31:44.921Z,46.56
2019-03-29T12:34:13.797Z,46.66
2019-03-29T12:36:42.334Z,47.22
2019-03-29T12:39:11.422Z,47.10
2019-03-29T12:41:40.015Z,45.17
2019-03-29T12:44:08.553Z,44.99
2019-03-29T12:46:38.457Z,44.63
2019-03-29T12:49:06.984Z,45.70
2019-03-29T12:51:36.428Z,45.42
2019-03-29T12:54:05.447Z,45.84
2019-03-29T12:56:34.043Z,47.60
2019-03-29T12:59:03.705Z,48.15
2019-03-29T13:01:39.719Z,48.52
2019-03-29T13:04:04.210Z,46.76
2019-03-29T13:06:32.880Z,47.28
2019-03-29T13:09:01.386Z,47.77
2019-03-29T13:11:30.028Z,48.37
2019-03-29T13:14:09.491Z,47.92
2019-03-29T13:16:30.330Z,47.68
2019-03-29T13:18:58.879Z,48.45
2019-03-29T13:21:27.448Z,48.18
2019-03-29T13:23:56.064Z,47.54
2019-03-29T13:26:24.600Z,46.79
2019-03-29T13:28:58.492Z,46.89
2019-03-29T13:31:26.534Z,47.78
2019-03-29T13:33:55.142Z,48.68
2019-03-29T13:36:23.788Z,48.65
2019-03-29T13:38:52.433Z,48.56
2019-03-29T13:41:21.114Z,48.92
2019-03-29T13:43:49.664Z,49.05
2019-03-29T13:46:18.164Z,49.39
2019-03-29T13:48:46.773Z,49.46
2019-03-29T13:51:15.401Z,49.60
2019-03-29T13:53:43.960Z,49.70
2019-03-29T13:56:12.520Z,50.10
2019-03-29T13:58:41.039Z,49.87
2019-03-29T14:01:09.648Z,49.63
2019-03-29T14:03:38.115Z,49.48
2019-03-29T14:06:06.699Z,48.60
2019-03-29T14:08:35.166Z,49.36
2019-03-29T14:11:03.773Z,49.78
2019-03-29T14:13:32.387Z,49.95
2019-03-29T14:16:00.928Z,50.28
2019-03-29T14:18:29.548Z,49.56
2019-03-29T14:20:59.160Z,50.06
2019-03-29T14:23:27.638Z,49.80
2019-03-29T14:25:56.174Z,49.69
2019-03-29T14:28:24.792Z,50.10
2019-03-29T14:30:53.260Z,50.01
2019-03-29T14:33:21.875Z,50.62
2019-03-29T14:35:50.347Z,50.52
2019-03-29T14:38:18.951Z,50.50
2019-03-29T14:40:47.565Z,51.17
2019-03-29T14:43:17.006Z,51.07
2019-03-29T14:45:45.630Z,50.83
2019-03-29T14:48:14.267Z,50.89
2019-03-29T14:50:42.911Z,51.12
2019-03-29T14:53:11.457Z,50.97
2019-03-29T14:55:40.099Z,50.68
2019-03-29T14:58:08.744Z,51.09
2019-03-29T15:00:42.443Z,51.44
2019-03-29T15:03:11.090Z,51.00
2019-03-29T15:05:40.438Z,51.38
2019-03-29T15:08:09.059Z,51.94
2019-03-29T15:10:37.671Z,51.67
2019-03-29T15:13:06.213Z,51.45
2019-03-29T15:15:34.832Z,51.99
2019-03-29T15:18:03.478Z,51.90
2019-03-29T15:20:32.081Z,51.82
2019-03-29T15:23:00.651Z,51.49
2019-03-29T15:25:32.207Z,51.93
2019-03-29T15:28:00.938Z,51.97
2019-03-29T15:30:29.573Z,51.30
2019-03-29T15:32:58.112Z,51.56
2019-03-29T15:35:31.576Z,51.92
2019-03-29T15:37:57.056Z,51.90
2019-03-29T15:40:25.588Z,51.85
2019-03-29T15:42:54.185Z,52.13
2019-03-29T15:45:25.503Z,52.28
2019-03-29T15:47:54.057Z,52.07
2019-03-29T15:50:22.621Z,52.54
2019-03-29T15:52:51.156Z,52.82
2019-03-29T15:55:19.781Z,53.08
2019-03-29T15:57:48.322Z,52.80
2019-03-29T16:00:17.305Z,53.41
2019-03-29T16:02:45.911Z,53.38
2019-03-29T16:05:14.556Z,53.61
2019-03-29T16:07:43.155Z,53.92
2019-03-29T16:10:11.765Z,54.16
2019-03-29T16:12:40.318Z,53.94
2019-03-29T16:15:08.955Z,54.28
2019-03-29T16:17:40.633Z,54.08
2019-03-29T16:20:09.639Z,54.20
2019-03-29T16:22:38.240Z,54.27
2019-03-29T16:25:07.820Z,54.44
2019-03-29T16:27:36.459Z,54.47
2019-03-29T16:30:06.967Z,54.37
2019-03-29T16:32:36.343Z,54.67
2019-03-29T16:35:07.151Z,54.72
2019-03-29T16:37:35.689Z,55.00
2019-03-29T16:40:06.317Z,55.36
2019-03-29T16:42:36.528Z,55.70
2019-03-29T16:45:06.777Z,55.67
2019-03-29T16:47:35.388Z,55.59
2019-03-29T16:50:07.530Z,55.71
2019-03-29T16:52:35.986Z,55.91
2019-03-29T16:55:13.026Z,56.26
2019-03-29T16:57:38.729Z,56.58
2019-03-29T17:00:12.635Z,56.79
2019-03-29T17:02:41.687Z,57.47
2019-03-29T17:05:10.387Z,57.78
2019-03-29T17:07:38.957Z,57.93
2019-03-29T17:10:08.361Z,58.24
2019-03-29T17:12:38.540Z,58.41
2019-03-29T17:15:07.876Z,58.60
2019-03-29T17:17:36.512Z,58.91
2019-03-29T17:20:07.686Z,59.19
2019-03-29T17:22:37.319Z,59.51
2019-03-29T17:25:08.885Z,59.79
2019-03-29T17:27:37.504Z,59.96
2019-03-29T17:30:08.942Z,60.25
2019-03-29T17:32:37.575Z,60.43
2019-03-29T17:35:07.383Z,60.83
2019-03-29T17:37:36.014Z,61.10
2019-03-29T17:40:07.890Z,61.26
2019-03-29T17:42:36.524Z,61.40
2019-03-29T17:45:07.169Z,61.65
2019-03-29T17:47:38.197Z,61.96
2019-03-29T17:50:07.279Z,62.38
2019-03-29T17:52:35.845Z,62.39
2019-03-29T17:55:05.872Z,62.60
2019-03-29T17:57:34.464Z,63.03
2019-03-29T18:00:06.442Z,63.44
2019-03-29T18:02:35.079Z,63.51
2019-03-29T18:05:04.955Z,63.85
2019-03-29T18:07:33.533Z,64.21
2019-03-29T18:10:02.183Z,64.34
2019-03-29T18:12:30.713Z,64.54
2019-03-29T18:14:59.286Z,64.66
2019-03-29T18:17:27.744Z,65.03
2019-03-29T18:19:56.209Z,65.70
2019-03-29T18:22:26.266Z,65.71
2019-03-29T18:24:54.804Z,66.00
2019-03-29T18:27:23.427Z,66.23
2019-03-29T18:29:53.277Z,66.51
2019-03-29T18:32:21.751Z,66.64
2019-03-29T18:34:50.579Z,66.72
2019-03-29T18:37:19.588Z,67.11
2019-03-29T18:39:48.203Z,67.10
2019-03-29T18:42:16.742Z,67.29
2019-03-29T18:44:45.342Z,67.86
2019-03-29T18:47:15.210Z,68.08
2019-03-29T18:49:43.780Z,68.37
2019-03-29T18:52:12.314Z,68.49
2019-03-29T18:54:40.937Z,68.63
2019-03-29T18:57:09.478Z,68.75
2019-03-29T18:59:38.095Z,68.83
2019-03-29T19:02:06.629Z,69.21
2019-03-29T19:04:35.131Z,69.39
2019-03-29T19:07:03.762Z,69.62
2019-03-29T19:09:32.293Z,69.79
2019-03-29T19:12:00.827Z,69.99
2019-03-29T19:14:29.454Z,70.38
2019-03-29T19:16:59.521Z,70.39
2019-03-29T19:19:28.236Z,70.47
2019-03-29T19:21:56.776Z,70.60
2019-03-29T19:24:25.379Z,70.97
2019-03-29T19:26:54.229Z,71.22
2019-03-29T19:29:22.839Z,71.25
2019-03-29T19:31:51.387Z,71.39
2019-03-29T19:34:20.032Z,71.45
2019-03-29T19:36:48.644Z,71.77
2019-03-29T19:39:17.297Z,71.78
2019-03-29T19:41:45.770Z,71.97
2019-03-29T19:44:14.246Z,72.02
2019-03-29T19:46:42.857Z,72.38
2019-03-29T19:49:11.399Z,72.50
2019-03-29T19:51:40.019Z,72.54
2019-03-29T19:54:08.697Z,72.83
2019-03-29T19:56:37.263Z,72.99
2019-03-29T19:59:07.912Z,73.24
2019-03-29T20:01:36.083Z,73.38
2019-03-29T20:04:04.805Z,73.42
2019-03-29T20:06:33.370Z,73.31
2019-03-29T20:09:01.981Z,73.32
2019-03-29T20:11:30.638Z,73.54
2019-03-29T20:13:59.184Z,73.83
2019-03-29T20:16:27.735Z,73.79
2019-03-29T20:18:56.340Z,74.12
2019-03-29T20:21:25.046Z,74.25
2019-03-29T20:23:53.511Z,74.18
2019-03-29T20:26:23.523Z,74.45
2019-03-29T20:28:52.067Z,74.46
2019-03-29T20:31:20.699Z,74.56
2019-03-29T20:33:49.166Z,74.61
2019-03-29T20:36:22.781Z,74.90
2019-03-29T20:38:48.472Z,74.89
2019-03-29T20:41:18.654Z,75.03
2019-03-29T20:43:47.443Z,75.51
2019-03-29T20:46:16.217Z,75.44
2019-03-29T20:48:44.832Z,75.48
2019-03-29T20:51:13.366Z,75.70
2019-03-29T20:53:43.652Z,75.71
2019-03-29T20:56:12.254Z,75.80
2019-03-29T20:58:42.714Z,76.07
2019-03-29T21:01:11.237Z,76.24
2019-03-29T21:03:39.717Z,76.19
2019-03-29T21:06:09.863Z,76.29
2019-03-29T21:08:39.691Z,76.38
2019-03-29T21:11:08.191Z,76.46
2019-03-29T21:13:36.795Z,76.45
2019-03-29T21:16:06.867Z,76.39
2019-03-29T21:18:35.438Z,76.48
2019-03-29T21:21:04.048Z,76.75
2019-03-29T21:23:32.689Z,76.68
2019-03-29T21:26:01.211Z,76.59
2019-03-29T21:28:29.755Z,76.84
2019-03-29T21:30:58.222Z,76.79
2019-03-29T21:33:26.861Z,76.77
2019-03-29T21:35:55.445Z,76.68
2019-03-29T21:38:24.013Z,76.87
2019-03-29T21:40:52.825Z,76.90
2019-03-29T21:43:21.437Z,76.93
2019-03-29T21:45:50.073Z,77.03
2019-03-29T21:48:28.504Z,77.33
2019-03-29T21:50:48.990Z,77.48
2019-03-29T21:53:17.512Z,77.41
2019-03-29T21:55:46.057Z,77.38
2019-03-29T21:58:14.527Z,77.42
2019-03-29T22:00:43.227Z,77.38
2019-03-29T22:03:11.749Z,77.22
2019-03-29T22:05:40.529Z,77.38
2019-03-29T22:08:09.139Z,77.58
2019-03-29T22:10:37.674Z,77.59
2019-03-29T22:13:06.297Z,77.71
2019-03-29T22:15:34.889Z,77.91
2019-03-29T22:18:06.792Z,77.73
2019-03-29T22:20:33.692Z,78.21
2019-03-29T22:23:02.188Z,78.29
2019-03-29T22:25:30.730Z,78.41
2019-03-29T22:27:59.368Z,78.52
2019-03-29T22:30:27.986Z,78.40
2019-03-29T22:32:56.616Z,78.49
2019-03-29T22:35:25.193Z,78.71
2019-03-29T22:37:53.820Z,78.68
2019-03-29T22:40:22.279Z,78.59
2019-03-29T22:42:50.843Z,78.59
2019-03-29T22:45:19.468Z,78.70
2019-03-29T22:47:49.418Z,78.93
2019-03-29T22:50:17.994Z,79.02
2019-03-29T22:52:46.535Z,79.21
2019-03-29T22:55:15.178Z,79.31
2019-03-29T22:57:43.783Z,79.41
2019-03-29T23:00:18.435Z,79.75
2019-03-29T23:02:47.109Z,79.63
2019-03-29T23:05:15.790Z,79.72
2019-03-29T23:07:44.453Z,79.76
2019-03-29T23:10:13.227Z,80.06
2019-03-29T23:12:41.787Z,80.10
2019-03-29T23:15:10.458Z,80.34
2019-03-29T23:17:39.063Z,80.34
2019-03-29T23:20:07.804Z,80.39
2019-03-29T23:22:36.275Z,80.30
2019-03-29T23:25:05.586Z,80.16
2019-03-29T23:27:34.650Z,79.92
2019-03-29T23:30:03.654Z,79.82
2019-03-29T23:32:32.218Z,79.84
2019-03-29T23:35:01.872Z,79.92
2019-03-29T23:37:30.464Z,79.93
2019-03-29T23:39:59.168Z,80.03
2019-03-29T23:42:27.802Z,80.23
2019-03-29T23:44:56.271Z,80.27
2019-03-29T23:47:24.923Z,80.40
2019-03-29T23:49:53.500Z,80.69
2019-03-29T23:52:21.951Z,80.53
2019-03-29T23:54:50.566Z,80.59
2019-03-29T23:57:21.784Z,80.58
2019-03-29T23:59:50.373Z,80.77
